INDIA METEOROLOGICAL DEPARTMENT, R.M.C. NEW DELHI
Dated:21 - 8 - 2014
METARS


Ahmedabad  
VAAH 211740Z 26004KT 4000 HZ NSC 31/25 Q1004 NOSIG=
Amritsar   
SPECI VIAR 211730Z VRB02KT 3000 BR FEW040 28/26 Q1002=
Bangalore  
VOBL 211800Z VRB01KT 6000 SCT012 SCT080 25/25 Q1011 NOSIG=
Bhopal     
VABP 211600Z 18005KT 6000 SCT025 FEW030CB BKN100 28/23 Q1008 NOSIG=
Bhubaneswar
VEBS 211730Z 24003 KT 3000 TS SCT018 FEW030CB BKN100 27/25 Q1005 NOSIG=
Chennai    
VOMM 211740Z 15007KT 6000 FEW020 29/24 Q1005 NOSIG=
Coimbatore 
VOCB 211800Z 23008KT 6000 FEW015 SCT080 25/23 Q1008 NOSIG=
Colombo    
VCBI 211740Z 21007KT 9999 SCT016 26/24 Q1007 NOSIG=
Delhi      
VIDP 211730Z 24005KT 3500 HZ FEW040 32/19 Q1003 NOSIG=
Gaya       
VEGY 211700Z 23003KT 4000 BR BKN018 BKN100 29/27 Q1003 =
Hyderabad  
VOHS 211740Z VRB03KT 4000 HZ SCT015 BKN100 24/19 Q1009 NOSIG=
Jaipur     
VIJP 211730Z 26004KT 4000 HZ NSC 29/20 Q1016 NOSIG=
Kochi      
VOCI 211730Z 33005KT 4000 TS SCT012 FEW025CB OVC080 25/24 Q1007 TEMPO RA=
Kolkata    
VECC 211750Z 18006KT 2500 HZ FEW018 SCT100 29/27 Q1004 NOSIG=
Kozhikode  
VOCL 211800Z 35004KT 6000 SCT012 26/24 Q1006 NOSIG=
Lucknow    
VILK 211730Z 00000KT 4000 HZ SCT020 SCT100 29/26 Q1003=
Madurai    
VOMD 211800Z 07003KT 6000 FEW020 29/22 Q1007 =
Mumbai     
VABB 211740Z 13003KT 2800 HZ FEW012 SCT018 FEW030CB BKN090 28/25 Q1006 TEMPO 1500 SHRA=
Nagpur     
VANP 211740Z 05004KT 4000 HZ SCT015 FEW030CB BKN080 25/24 Q1007 TEMPO 3000 RA/TSRA=
Patna      
VEPT 211750Z NIL=
Trichy     
VOTR 211740Z 15006KT 6000 FEW016 FEW025CB 29/24 Q1006 NOSIG=
Trivandrum 
VOTV 211740Z 00000KT 4000 HZ SCT012 FEW025CB BKN080 27/24 Q1006 NOSIG=
Vizag      
VOVZ 211700Z 29003KT 5000 BR FEW018 28/25 Q1006 NOSIG =
Male       
VRMM 211717Z 27022KT 2000 +SHRA SCT015 SCT015CB 26/25 Q1011 CB NW,W,E,OVERHEAD TEMPO 27020G45KT 2000 +SHRA=
Gan        
VRMG 211700Z 25013KT 9999 SCT017TCU BKN100 28/23 Q1011=
Kathmandu   
VNKT 211750Z NIL=
Dhaka      
VGHS 211750Z 18006KT 4000 HZ SCT012 BKN100 28/25 Q1005 NOSIG=
Colombo     
VCBI 211740Z 21007KT 9999 SCT016 26/24 Q1007 NOSIG=
Karachi     
OPKC 211755Z 23010KT 7000 FEW020 SCT030 28/22 Q1004 NOSIG=
Lahore      
OPLA 211800Z NIL=